createdAt,value
2019-01-23T00:02:50.118Z,82.74
2019-01-23T00:07:52.669Z,82.80
2019-01-23T00:12:55.493Z,82.34
2019-01-23T00:17:58.169Z,81.63
2019-01-23T00:23:00.936Z,81.61
2019-01-23T00:28:03.929Z,81.81
2019-01-23T00:33:06.539Z,81.31
2019-01-23T00:38:09.299Z,81.37
2019-01-23T00:43:12.110Z,81.86
2019-01-23T00:48:14.735Z,80.76
2019-01-23T00:53:17.276Z,79.76
2019-01-23T00:58:19.865Z,79.27
2019-01-23T01:03:22.404Z,79.08
2019-01-23T01:08:25.069Z,78.96
2019-01-23T01:13:27.664Z,77.78
2019-01-23T01:18:30.244Z,77.18
2019-01-23T01:23:32.845Z,76.91
2019-01-23T01:28:35.382Z,77.41
2019-01-23T01:33:38.084Z,78.64
2019-01-23T01:38:40.984Z,77.89
2019-01-23T01:43:43.524Z,77.48
2019-01-23T01:48:46.054Z,77.48
2019-01-23T01:53:48.658Z,75.55
2019-01-23T01:58:51.234Z,76.46
2019-01-23T02:03:53.799Z,76.30
2019-01-23T02:08:56.551Z,76.81
2019-01-23T02:13:59.169Z,76.12
2019-01-23T02:19:02.033Z,76.33
2019-01-23T02:24:04.683Z,74.72
2019-01-23T02:29:09.616Z,76.57
2019-01-23T02:34:11.773Z,76.05
2019-01-23T02:39:14.370Z,73.16
2019-01-23T02:44:17.026Z,74.78
2019-01-23T02:49:19.619Z,74.82
2019-01-23T02:54:22.185Z,74.80
2019-01-23T02:59:24.705Z,76.14
2019-01-23T03:04:27.348Z,75.36
2019-01-23T03:09:29.850Z,75.07
2019-01-23T03:14:32.510Z,77.02
2019-01-23T03:19:35.475Z,77.27
2019-01-23T03:24:37.963Z,75.49
2019-01-23T03:29:40.511Z,75.61
2019-01-23T03:34:43.136Z,74.80
2019-01-23T03:39:45.684Z,74.84
2019-01-23T03:44:48.191Z,74.75
2019-01-23T03:49:50.868Z,75.09
2019-01-23T03:54:53.584Z,77.74
2019-01-23T03:59:56.255Z,78.30
2019-01-23T04:04:58.836Z,76.75
2019-01-23T04:10:01.392Z,77.86
2019-01-23T04:15:06.567Z,77.34
2019-01-23T04:20:12.049Z,77.36
2019-01-23T04:25:14.886Z,78.56
2019-01-23T04:30:19.718Z,78.75
2019-01-23T04:35:22.233Z,78.75
2019-01-23T04:40:24.805Z,76.99
2019-01-23T04:45:27.386Z,75.75
2019-01-23T04:50:31.093Z,75.96
2019-01-23T04:55:34.873Z,76.51
2019-01-23T05:00:37.366Z,75.91
2019-01-23T05:05:40.109Z,75.80
2019-01-23T05:10:42.706Z,74.04
2019-01-23T05:15:45.341Z,73.89
2019-01-23T05:20:47.939Z,73.22
2019-01-23T05:25:50.527Z,71.82
2019-01-23T05:30:53.488Z,70.99
2019-01-23T05:35:56.073Z,71.68
2019-01-23T05:40:58.653Z,71.44
2019-01-23T05:46:01.360Z,72.41
2019-01-23T05:51:03.839Z,70.89
2019-01-23T05:56:06.414Z,72.61
2019-01-23T06:01:08.900Z,72.31
2019-01-23T06:06:11.634Z,70.66
2019-01-23T06:11:14.257Z,70.23
2019-01-23T06:16:16.906Z,69.79
2019-01-23T06:21:19.424Z,70.29
2019-01-23T06:26:22.048Z,70.20
2019-01-23T06:31:24.785Z,69.83
2019-01-23T06:36:27.475Z,69.12
2019-01-23T06:41:30.124Z,69.31
2019-01-23T06:46:32.735Z,70.91
2019-01-23T06:51:35.294Z,72.98
2019-01-23T06:56:37.898Z,75.78
2019-01-23T07:01:40.474Z,77.12
2019-01-23T07:06:43.019Z,78.22
2019-01-23T07:11:45.597Z,78.81
2019-01-23T07:16:48.966Z,76.44
2019-01-23T07:21:51.444Z,76.07
2019-01-23T07:26:53.945Z,74.97
2019-01-23T07:31:56.654Z,73.49
2019-01-23T07:36:59.290Z,73.45
2019-01-23T07:42:01.898Z,72.59
2019-01-23T07:47:04.610Z,72.70
2019-01-23T07:52:07.373Z,73.62
2019-01-23T07:57:10.038Z,73.69
2019-01-23T08:02:12.681Z,72.98
2019-01-23T08:07:15.169Z,72.33
2019-01-23T08:12:17.819Z,71.26
2019-01-23T08:17:20.534Z,70.44
2019-01-23T08:22:23.226Z,71.39
2019-01-23T08:27:25.818Z,71.11
2019-01-23T08:32:28.970Z,72.51
2019-01-23T08:37:31.710Z,70.26
2019-01-23T08:42:34.321Z,68.52
2019-01-23T08:47:37.094Z,69.27
2019-01-23T08:52:39.773Z,68.18
2019-01-23T08:57:42.501Z,68.03
2019-01-23T09:02:45.401Z,69.25
2019-01-23T09:07:48.010Z,70.11
2019-01-23T09:12:50.875Z,69.30
2019-01-23T09:17:53.574Z,68.98
2019-01-23T09:22:56.361Z,70.75
2019-01-23T09:27:59.093Z,70.84
2019-01-23T09:33:16.534Z,71.46
2019-01-23T09:38:35.355Z,70.39
2019-01-23T09:43:53.196Z,70.03
2019-01-23T09:49:08.115Z,69.77
2019-01-23T09:54:13.694Z,70.47
2019-01-23T09:59:16.267Z,69.33
2019-01-23T10:04:19.081Z,71.23
2019-01-23T10:09:21.815Z,71.38
2019-01-23T10:14:24.434Z,69.31
2019-01-23T10:19:27.306Z,67.23
2019-01-23T10:24:35.810Z,66.65
2019-01-23T10:29:34.414Z,69.25
2019-01-23T10:34:37.062Z,70.15
2019-01-23T10:39:39.870Z,69.12
2019-01-23T10:44:42.553Z,67.93
2019-01-23T10:49:45.274Z,68.21
2019-01-23T10:54:47.836Z,69.00
2019-01-23T10:59:50.270Z,69.21
2019-01-23T11:04:52.793Z,69.28
2019-01-23T11:09:55.277Z,65.84
2019-01-23T11:14:58.115Z,63.67
2019-01-23T11:20:00.854Z,65.86
2019-01-23T11:25:04.633Z,67.81
2019-01-23T11:30:11.143Z,67.62
2019-01-23T11:35:14.174Z,67.84
2019-01-23T11:40:19.795Z,66.76
2019-01-23T11:45:23.034Z,66.25
2019-01-23T11:50:25.795Z,65.92
2019-01-23T11:55:28.608Z,64.18
2019-01-23T12:00:33.532Z,64.98
2019-01-23T12:05:36.213Z,65.80
2019-01-23T12:10:38.738Z,64.72
2019-01-23T12:15:41.353Z,65.21
2019-01-23T12:20:43.945Z,65.22
2019-01-23T12:25:46.513Z,68.17
2019-01-23T12:30:49.450Z,68.39
2019-01-23T12:35:52.354Z,69.86
2019-01-23T12:40:55.109Z,69.19
2019-01-23T12:45:58.030Z,69.05
2019-01-23T12:51:00.882Z,68.63
2019-01-23T12:56:04.995Z,68.28
2019-01-23T13:01:07.670Z,70.04
2019-01-23T13:06:10.406Z,73.93
2019-01-23T13:11:13.131Z,77.18
2019-01-23T13:16:15.949Z,78.25
2019-01-23T13:21:18.793Z,78.21
2019-01-23T13:26:21.414Z,78.56
2019-01-23T13:31:24.309Z,79.13
2019-01-23T13:36:26.854Z,78.03
2019-01-23T13:41:29.570Z,76.88
2019-01-23T13:46:32.254Z,76.99
2019-01-23T13:51:35.034Z,76.49
2019-01-23T13:56:37.592Z,76.81
2019-01-23T14:01:40.175Z,77.68
2019-01-23T14:06:43.173Z,77.83
2019-01-23T14:11:45.813Z,78.15
2019-01-23T14:16:48.413Z,78.03
2019-01-23T14:21:51.213Z,77.60
2019-01-23T14:26:53.933Z,76.89
2019-01-23T14:32:03.094Z,75.95
2019-01-23T14:37:01.391Z,75.84
2019-01-23T14:42:03.994Z,75.48
2019-01-23T14:47:06.734Z,73.98
2019-01-23T14:52:09.674Z,74.65
2019-01-23T14:57:12.312Z,73.80
2019-01-23T15:02:14.870Z,74.33
2019-01-23T15:07:17.633Z,74.85
2019-01-23T15:12:20.270Z,74.86
2019-01-23T15:17:22.894Z,74.74
2019-01-23T15:22:25.575Z,74.56
2019-01-23T15:27:28.229Z,73.22
2019-01-23T15:32:30.850Z,73.12
2019-01-23T15:37:33.634Z,72.63
2019-01-23T15:42:36.329Z,73.00
2019-01-23T15:47:39.190Z,73.03
2019-01-23T15:52:41.870Z,71.88
2019-01-23T15:57:44.734Z,72.27
2019-01-23T16:02:48.612Z,73.52
2019-01-23T16:07:51.473Z,74.04
2019-01-23T16:12:54.074Z,73.64
2019-01-23T16:17:57.554Z,73.89
2019-01-23T16:23:00.793Z,74.95
2019-01-23T16:28:03.354Z,74.74
2019-01-23T16:33:06.693Z,75.04
2019-01-23T16:38:10.781Z,75.11
2019-01-23T16:43:13.414Z,75.33
2019-01-23T16:48:16.174Z,76.48
2019-01-23T16:53:18.969Z,76.78
2019-01-23T16:58:21.974Z,78.02
2019-01-23T17:03:24.714Z,78.50
2019-01-23T17:08:27.413Z,78.88
2019-01-23T17:13:30.138Z,79.30
2019-01-23T17:18:32.933Z,79.40
2019-01-23T17:23:35.833Z,79.01
2019-01-23T17:28:38.554Z,79.42
2019-01-23T17:33:41.414Z,79.25
2019-01-23T17:38:44.294Z,78.83
2019-01-23T17:43:47.433Z,78.86
2019-01-23T17:48:50.094Z,79.62
2019-01-23T17:53:52.993Z,79.81
2019-01-23T17:58:55.474Z,79.94
2019-01-23T18:03:58.211Z,79.44
2019-01-23T18:09:01.069Z,78.70
2019-01-23T18:14:03.795Z,78.65
2019-01-23T18:19:06.729Z,78.65
2019-01-23T18:24:09.582Z,78.63
2019-01-23T18:29:12.396Z,78.23
2019-01-23T18:34:33.434Z,77.88
2019-01-23T18:40:01.294Z,77.64
2019-01-23T18:45:22.306Z,78.21
2019-01-23T18:50:53.273Z,78.37
2019-01-23T18:55:56.035Z,78.75
2019-01-23T19:00:58.593Z,79.10
2019-01-23T19:06:01.570Z,79.30
2019-01-23T19:11:04.610Z,79.62
2019-01-23T19:16:08.049Z,79.92
2019-01-23T19:21:10.876Z,79.77
2019-01-23T19:26:13.755Z,80.26
2019-01-23T19:31:16.474Z,80.06
2019-01-23T19:36:18.994Z,80.52
2019-01-23T19:41:21.689Z,80.00
2019-01-23T19:46:24.414Z,79.66
2019-01-23T19:51:27.197Z,79.53
2019-01-23T19:56:29.914Z,79.42
2019-01-23T20:01:32.575Z,79.66
2019-01-23T20:06:35.216Z,80.19
2019-01-23T20:11:39.073Z,80.57
2019-01-23T20:16:41.774Z,80.46
2019-01-23T20:21:44.446Z,80.21
2019-01-23T20:26:47.214Z,79.78
2019-01-23T20:31:49.725Z,80.09
2019-01-23T20:36:52.275Z,80.04
2019-01-23T20:41:55.077Z,79.90
2019-01-23T20:46:57.801Z,79.78
2019-01-23T20:52:00.549Z,80.05
2019-01-23T20:57:03.274Z,80.02
2019-01-23T21:02:06.173Z,80.06
2019-01-23T21:07:12.448Z,79.92
2019-01-23T21:12:18.644Z,79.64
2019-01-23T21:17:19.495Z,79.35
2019-01-23T21:22:22.194Z,79.20
2019-01-23T21:27:25.522Z,78.91
2019-01-23T21:32:28.354Z,78.77
2019-01-23T21:37:30.934Z,78.84
2019-01-23T21:42:33.534Z,78.68
2019-01-23T21:47:36.436Z,78.45
2019-01-23T21:52:39.294Z,78.05
2019-01-23T21:57:42.034Z,77.73
2019-01-23T22:02:44.617Z,77.98
2019-01-23T22:07:47.353Z,78.50
2019-01-23T22:12:50.049Z,78.29
2019-01-23T22:17:52.874Z,78.79
2019-01-23T22:22:55.481Z,78.73
2019-01-23T22:27:58.194Z,78.38
2019-01-23T22:33:01.015Z,78.44
2019-01-23T22:38:04.777Z,78.37
2019-01-23T22:43:07.714Z,78.73
2019-01-23T22:48:10.474Z,78.41
2019-01-23T22:53:13.093Z,78.32
2019-01-23T22:58:15.801Z,77.99
2019-01-23T23:03:20.089Z,77.69
2019-01-23T23:08:22.814Z,78.29
2019-01-23T23:13:25.417Z,78.48
2019-01-23T23:18:28.035Z,78.26
2019-01-23T23:23:30.673Z,78.54
2019-01-23T23:28:33.394Z,78.95
2019-01-23T23:33:35.934Z,79.42
2019-01-23T23:38:38.674Z,79.74
2019-01-23T23:43:41.454Z,79.77
2019-01-23T23:48:44.229Z,79.81
2019-01-23T23:53:47.114Z,79.60
2019-01-23T23:58:49.714Z,79.42
